Time;durP1;ratioP1;P1;durP2;ratioP2;P2;SDS_P1;SDS_P2;PMS_P1;PMS_P2;Temp;Humidity;BMP_temperature;BMP_pressure;BME280_temperature;BME280_humidity;BME280_pressure;Samples;Min_cycle;Max_cycle;Signal;HPM_P1;HPM_P2
2022/11/15 00:01:16;;;;;;;9.50;6.90;;;6.00;99.90;;;;;;5038321;28;20176;-87
2022/11/15 00:04:00;;;;;;;12.07;8.23;;;6.00;99.90;;;;;;5038673;28;20225;-87
2022/11/15 00:06:45;;;;;;;15.90;10.00;;;5.80;99.90;;;;;;5052215;28;20184;-86
2022/11/15 00:09:30;;;;;;;11.77;8.33;;;5.80;99.90;;;;;;5038422;28;20206;-87
2022/11/15 00:12:15;;;;;;;10.13;8.50;;;5.70;99.90;;;;;;5039213;28;20241;-87
2022/11/15 00:14:59;;;;;;;11.33;8.10;;;5.70;99.90;;;;;;5037842;28;20295;-87
2022/11/15 00:17:44;;;;;;;8.83;7.50;;;5.70;99.90;;;;;;5038311;28;20171;-87
2022/11/15 00:20:36;;;;;;;12.30;7.70;;;5.60;99.90;;;;;;5038020;28;20702;-87
2022/11/15 00:23:20;;;;;;;10.40;7.30;;;5.60;99.90;;;;;;5038188;28;20222;-87
2022/11/15 00:26:05;;;;;;;9.10;6.57;;;5.60;99.90;;;;;;5038737;28;20227;-87
2022/11/15 00:28:52;;;;;;;11.37;7.13;;;5.60;99.90;;;;;;5037922;28;20189;-87
2022/11/15 00:31:37;;;;;;;10.77;6.83;;;5.50;99.90;;;;;;5038428;28;20219;-87
2022/11/15 00:34:21;;;;;;;9.33;6.27;;;5.50;99.90;;;;;;5038046;28;20261;-87
2022/11/15 00:37:06;;;;;;;10.90;7.07;;;5.50;99.90;;;;;;5049493;28;20175;-87
2022/11/15 00:39:51;;;;;;;10.50;6.37;;;5.50;99.90;;;;;;5048991;28;20186;-87
2022/11/15 00:42:35;;;;;;;6.93;5.73;;;5.50;99.90;;;;;;5035090;28;20242;-87
2022/11/15 00:45:20;;;;;;;9.13;6.57;;;5.50;99.90;;;;;;5035033;28;20226;-87
2022/11/15 00:48:05;;;;;;;10.07;6.17;;;5.50;99.90;;;;;;5035093;28;20177;-87
2022/11/15 00:50:52;;;;;;;10.73;6.47;;;5.40;99.90;;;;;;5035166;28;20247;-87
2022/11/15 00:53:37;;;;;;;9.23;6.87;;;5.40;99.90;;;;;;5034746;28;20177;-87
2022/11/15 00:56:21;;;;;;;9.03;6.67;;;5.40;99.90;;;;;;5034870;28;20246;-87
2022/11/15 00:59:05;;;;;;;7.63;6.00;;;5.40;99.90;;;;;;5034781;28;20187;-87
2022/11/15 01:01:50;;;;;;;10.63;6.60;;;5.40;99.90;;;;;;5034903;28;20293;-87
2022/11/15 01:04:34;;;;;;;11.23;7.73;;;5.40;99.90;;;;;;5034196;28;20211;-87
2022/11/15 01:07:19;;;;;;;10.90;7.50;;;5.30;99.90;;;;;;5048071;28;20195;-87
2022/11/15 01:10:05;;;;;;;11.17;7.37;;;5.30;99.90;;;;;;5048622;28;20173;-87
2022/11/15 01:12:49;;;;;;;11.30;7.93;;;5.30;99.90;;;;;;5048668;28;20187;-87
2022/11/15 01:15:34;;;;;;;11.60;8.40;;;5.30;99.90;;;;;;5014620;28;20224;-87
2022/11/15 01:18:21;;;;;;;11.97;8.37;;;5.30;99.90;;;;;;5016786;28;20268;-87
2022/11/15 01:21:16;;;;;;;10.60;7.90;;;5.30;99.90;;;;;;5033886;28;20178;-87
2022/11/15 01:24:00;;;;;;;12.43;8.13;;;5.30;99.90;;;;;;5034207;28;20237;-87
2022/11/15 01:26:45;;;;;;;12.97;7.63;;;5.30;99.90;;;;;;5034380;28;20191;-87
2022/11/15 01:29:29;;;;;;;12.23;7.97;;;5.30;99.90;;;;;;5034974;28;20647;-87
2022/11/15 01:32:14;;;;;;;9.30;7.00;;;5.30;99.90;;;;;;5034741;28;20180;-87
2022/11/15 01:34:58;;;;;;;10.50;8.00;;;5.30;99.90;;;;;;5023893;28;20218;-87
2022/11/15 01:37:43;;;;;;;9.20;7.17;;;5.30;99.90;;;;;;5035187;28;20171;-87
2022/11/15 01:40:27;;;;;;;10.63;6.83;;;5.30;99.90;;;;;;5035188;28;20200;-87
2022/11/15 01:43:23;;;;;;;8.43;7.07;;;5.20;99.90;;;;;;5033553;28;20223;-87
2022/11/15 01:46:34;;;;;;;10.33;7.87;;;5.30;99.90;;;;;;5033734;28;20179;-87
2022/11/15 01:49:22;;;;;;;10.00;7.53;;;5.20;99.90;;;;;;5033308;28;20223;-87
2022/11/15 01:52:14;;;;;;;9.50;7.40;;;5.20;99.90;;;;;;5032816;28;20193;-87
2022/11/15 01:55:07;;;;;;;10.27;7.77;;;5.20;99.90;;;;;;5032493;28;20249;-87
2022/11/15 01:57:56;;;;;;;12.03;7.27;;;5.20;99.90;;;;;;5033244;28;20576;-87
2022/11/15 02:00:41;;;;;;;9.57;6.90;;;5.20;99.90;;;;;;5013737;28;20255;-87
2022/11/15 02:03:36;;;;;;;9.77;7.50;;;5.10;99.90;;;;;;5013682;28;20169;-87
2022/11/15 02:06:22;;;;;;;8.87;7.27;;;5.10;99.90;;;;;;5032949;28;20190;-87
2022/11/15 02:09:07;;;;;;;7.83;6.40;;;5.00;99.90;;;;;;5032472;28;20241;-87
2022/11/15 02:11:54;;;;;;;8.53;6.27;;;5.00;99.90;;;;;;5033203;28;20195;-87
2022/11/15 02:14:42;;;;;;;7.30;6.07;;;5.00;99.90;;;;;;5047405;28;20333;-87
2022/11/15 02:17:38;;;;;;;10.63;7.13;;;4.90;99.90;;;;;;5047357;28;20176;-87
2022/11/15 02:20:43;;;;;;;9.67;7.03;;;4.90;99.90;;;;;;5047093;28;20214;-87
2022/11/15 02:23:46;;;;;;;10.43;7.47;;;4.90;99.90;;;;;;5046988;28;20213;-87
2022/11/15 02:26:49;;;;;;;9.83;7.33;;;4.90;99.90;;;;;;5047001;28;20175;-87
2022/11/15 02:29:59;;;;;;;10.53;6.60;;;4.90;99.90;;;;;;5046730;28;20211;-86
2022/11/15 02:33:17;;;;;;;8.13;6.67;;;4.90;99.90;;;;;;5047127;28;20174;-87
2022/11/15 02:36:10;;;;;;;7.73;6.40;;;4.90;99.90;;;;;;5005980;28;20242;-87
2022/11/15 02:39:08;;;;;;;8.13;6.57;;;4.90;99.90;;;;;;5012885;28;20167;-87
2022/11/15 02:43:56;;;;;;;7.27;6.07;;;4.80;99.90;;;;;;5027186;28;20338;-87
2022/11/15 02:45:17;;;;;;;9.37;7.07;;;4.70;99.90;;;;;;5013856;28;20230;-87
2022/11/15 02:48:05;;;;;;;10.23;7.00;;;4.70;99.90;;;;;;5012877;28;20180;-87
2022/11/15 02:50:51;;;;;;;10.70;6.70;;;4.70;99.90;;;;;;5013282;28;20174;-87
2022/11/15 02:53:35;;;;;;;8.27;6.57;;;4.70;99.90;;;;;;5012494;28;20213;-86
2022/11/15 02:56:23;;;;;;;9.07;7.10;;;4.70;99.90;;;;;;5027088;28;20167;-87
2022/11/15 02:59:25;;;;;;;16.07;9.03;;;4.80;99.90;;;;;;5027145;28;20766;-86
2022/11/15 03:02:28;;;;;;;15.87;8.83;;;4.70;99.90;;;;;;5028588;28;20206;-87
2022/11/15 03:05:12;;;;;;;11.27;7.00;;;4.70;99.90;;;;;;5038976;28;20221;-86
2022/11/15 03:08:02;;;;;;;13.00;8.03;;;4.70;99.90;;;;;;5032626;28;20171;-87
2022/11/15 03:11:17;;;;;;;12.47;8.37;;;4.70;99.90;;;;;;5046394;28;20175;-87
2022/11/15 03:14:23;;;;;;;9.13;6.77;;;4.70;99.90;;;;;;5046228;28;20255;-87
2022/11/15 03:17:28;;;;;;;9.57;5.83;;;4.70;99.90;;;;;;5046178;28;20694;-87
2022/11/15 03:20:16;;;;;;;6.90;6.00;;;4.70;99.90;;;;;;5046641;28;20210;-87
2022/11/15 03:23:08;;;;;;;9.57;6.87;;;4.70;99.90;;;;;;5045970;28;20206;-87
2022/11/15 03:25:54;;;;;;;8.13;5.90;;;4.70;99.90;;;;;;5032121;28;20256;-86
2022/11/15 03:28:47;;;;;;;8.30;6.10;;;4.70;99.90;;;;;;5032094;28;20218;-87
2022/11/15 03:31:46;;;;;;;9.67;6.40;;;4.70;99.90;;;;;;5030940;28;20188;-87
2022/11/15 03:34:37;;;;;;;10.73;7.47;;;4.80;99.90;;;;;;5025994;28;20223;-87
2022/11/15 03:37:29;;;;;;;8.73;6.53;;;4.80;99.90;;;;;;5024104;28;20726;-87
2022/11/15 03:40:14;;;;;;;8.70;6.80;;;4.80;99.90;;;;;;5030975;28;20266;-87
2022/11/15 03:43:35;;;;;;;9.27;6.77;;;4.80;99.90;;;;;;5029768;28;20221;-87
2022/11/15 03:46:48;;;;;;;9.40;6.73;;;4.80;99.90;;;;;;5031477;28;20181;-87
2022/11/15 03:49:35;;;;;;;9.17;6.73;;;4.80;99.90;;;;;;5031564;28;20166;-87
2022/11/15 03:52:21;;;;;;;11.23;7.13;;;4.70;99.90;;;;;;5031490;28;20174;-87
2022/11/15 03:55:08;;;;;;;12.40;7.27;;;4.70;99.90;;;;;;5031414;28;20218;-87
2022/11/15 03:57:57;;;;;;;13.73;8.13;;;4.70;99.90;;;;;;5031491;28;20237;-87
2022/11/15 04:00:42;;;;;;;14.57;8.87;;;4.60;99.90;;;;;;5031005;28;20221;-87
2022/11/15 04:03:26;;;;;;;15.40;9.00;;;4.60;99.90;;;;;;5031278;28;20256;-87
2022/11/15 04:06:11;;;;;;;13.10;8.13;;;4.60;99.90;;;;;;5031203;28;20194;-87
2022/11/15 04:08:55;;;;;;;11.80;7.97;;;4.60;99.90;;;;;;5045349;28;20177;-87
2022/11/15 04:11:39;;;;;;;12.67;8.27;;;4.70;99.90;;;;;;5045805;28;20174;-87
2022/11/15 04:14:27;;;;;;;10.73;8.33;;;4.70;99.90;;;;;;5048834;28;20209;-86
2022/11/15 04:17:12;;;;;;;12.37;8.23;;;4.60;99.90;;;;;;5048790;28;20170;-87
2022/11/15 04:26:11;;;;;;;11.90;7.83;;;4.60;99.90;;;;;;5036063;28;20191;-86
2022/11/15 04:31:58;;;;;;;10.60;7.70;;;4.60;99.90;;;;;;5035936;28;20311;-86
2022/11/15 04:34:43;;;;;;;14.73;8.60;;;4.60;99.90;;;;;;5034759;28;20215;-87
2022/11/15 04:37:27;;;;;;;10.97;8.67;;;4.60;99.90;;;;;;5048548;28;20175;-86
2022/11/15 04:40:17;;;;;;;11.80;8.63;;;4.60;99.90;;;;;;5063115;28;20234;-89
2022/11/15 04:43:01;;;;;;;10.50;7.37;;;4.60;99.90;;;;;;5030053;28;20207;-89
2022/11/15 04:45:47;;;;;;;13.40;8.00;;;4.60;99.90;;;;;;5015672;28;20249;-88
2022/11/15 04:48:32;;;;;;;9.57;7.30;;;4.70;99.90;;;;;;5014673;28;20194;-89
2022/11/15 04:51:17;;;;;;;11.73;7.87;;;4.70;99.90;;;;;;5033885;28;20309;-89
2022/11/15 04:54:01;;;;;;;10.80;8.13;;;4.70;99.90;;;;;;5034575;28;20203;-89
2022/11/15 04:56:48;;;;;;;11.03;8.10;;;4.70;99.90;;;;;;5036577;28;20266;-89
2022/11/15 04:59:33;;;;;;;12.57;8.30;;;4.70;99.90;;;;;;5053405;28;20180;-89
2022/11/15 05:02:17;;;;;;;11.40;9.00;;;4.70;99.90;;;;;;5054137;28;20262;-89
2022/11/15 05:05:02;;;;;;;9.50;7.77;;;4.70;99.90;;;;;;5045226;28;20585;-88
2022/11/15 05:07:46;;;;;;;11.33;8.20;;;4.70;99.90;;;;;;5048132;28;20774;-88
2022/11/15 05:10:31;;;;;;;11.10;8.30;;;4.80;99.90;;;;;;5057861;28;20559;-89
2022/11/15 05:13:16;;;;;;;10.40;7.77;;;4.80;99.90;;;;;;5034213;28;20173;-88
2022/11/15 05:16:01;;;;;;;9.27;7.70;;;4.80;99.90;;;;;;5033953;28;20640;-88
2022/11/15 05:18:45;;;;;;;11.27;8.00;;;4.80;99.90;;;;;;5034052;28;20221;-88
2022/11/15 05:21:33;;;;;;;9.90;7.97;;;4.80;99.90;;;;;;5033953;28;20250;-88
2022/11/15 05:24:18;;;;;;;8.57;6.90;;;4.80;99.90;;;;;;5033037;28;20319;-89
2022/11/15 05:27:02;;;;;;;9.13;7.03;;;4.80;99.90;;;;;;5033622;28;20320;-89
2022/11/15 05:29:47;;;;;;;9.17;7.30;;;4.80;99.90;;;;;;5033719;28;20700;-89
2022/11/15 05:32:32;;;;;;;9.70;7.27;;;4.80;99.90;;;;;;5033664;28;20251;-88
2022/11/15 05:35:54;;;;;;;9.40;6.83;;;4.80;99.90;;;;;;5033660;28;20209;-88
2022/11/15 05:38:39;;;;;;;14.87;9.30;;;4.70;99.90;;;;;;4999978;28;20221;-89
2022/11/15 05:41:30;;;;;;;15.90;8.93;;;4.70;99.90;;;;;;5034649;28;20629;-88
2022/11/15 05:44:19;;;;;;;18.20;9.97;;;4.70;99.90;;;;;;5039272;28;20211;-88
2022/11/15 05:47:08;;;;;;;13.77;9.20;;;4.70;99.90;;;;;;5021298;28;20229;-89
2022/11/15 05:49:56;;;;;;;7.87;6.50;;;4.70;99.90;;;;;;5051748;28;20168;-89
2022/11/15 05:52:40;;;;;;;8.57;6.70;;;4.70;99.90;;;;;;5033499;28;20200;-88
2022/11/15 05:55:24;;;;;;;8.70;7.07;;;4.70;99.90;;;;;;5053369;28;20209;-89
2022/11/15 05:58:09;;;;;;;7.67;6.50;;;4.70;99.90;;;;;;5038621;28;20270;-88
2022/11/15 06:00:54;;;;;;;8.77;6.67;;;4.70;99.90;;;;;;5048090;28;20173;-88
2022/11/15 06:03:38;;;;;;;12.50;8.33;;;4.60;99.90;;;;;;5052878;28;20193;-89
2022/11/15 06:06:23;;;;;;;14.77;9.50;;;4.60;99.90;;;;;;5033020;28;20261;-88
2022/11/15 06:09:08;;;;;;;13.50;9.20;;;4.40;99.90;;;;;;5039060;28;20189;-88
2022/11/15 06:11:52;;;;;;;13.63;9.60;;;4.30;99.90;;;;;;5030078;28;20197;-88
2022/11/15 06:14:37;;;;;;;13.40;9.17;;;4.30;99.90;;;;;;5033776;28;20263;-88
2022/11/15 06:17:22;;;;;;;11.73;8.87;;;4.30;99.90;;;;;;5047100;28;20190;-88
2022/11/15 06:20:06;;;;;;;12.87;8.77;;;4.40;99.90;;;;;;5045744;28;20294;-89
2022/11/15 06:22:51;;;;;;;10.97;7.77;;;4.40;99.90;;;;;;5045212;28;20256;-90
2022/11/15 06:25:37;;;;;;;14.27;8.67;;;4.40;99.90;;;;;;5051812;28;20286;-88
2022/11/15 06:28:22;;;;;;;13.67;8.43;;;4.40;99.90;;;;;;5052381;28;20177;-89
2022/11/15 06:31:10;;;;;;;11.57;8.60;;;4.40;99.90;;;;;;5030196;28;20194;-89
2022/11/15 06:33:55;;;;;;;14.03;8.67;;;4.40;99.90;;;;;;5012405;28;20196;-89
2022/11/15 06:36:39;;;;;;;12.10;8.27;;;4.40;99.90;;;;;;5021867;28;20185;-90
2022/11/15 06:39:24;;;;;;;12.10;8.37;;;4.40;99.90;;;;;;5032474;28;20181;-89
2022/11/15 06:42:09;;;;;;;12.33;8.07;;;4.40;99.90;;;;;;5032400;28;20196;-89
2022/11/15 06:44:53;;;;;;;9.63;7.97;;;4.50;99.90;;;;;;5032164;28;20214;-89
2022/11/15 06:47:47;;;;;;;9.93;7.00;;;4.50;99.90;;;;;;5032406;28;20305;-89
2022/11/15 06:50:32;;;;;;;11.13;7.93;;;4.60;99.90;;;;;;5032209;28;20209;-89
2022/11/15 06:53:16;;;;;;;11.67;7.13;;;4.70;99.90;;;;;;5032314;28;20651;-88
2022/11/15 06:56:03;;;;;;;9.87;8.63;;;4.80;99.90;;;;;;5032155;28;20272;-88
2022/11/15 06:58:47;;;;;;;17.93;14.00;;;4.80;99.90;;;;;;5032199;28;20173;-88
2022/11/15 07:01:32;;;;;;;11.33;9.23;;;4.90;99.90;;;;;;5032234;28;20214;-89
2022/11/15 07:04:16;;;;;;;11.33;8.03;;;4.90;99.90;;;;;;5031940;28;20294;-89
2022/11/15 07:07:01;;;;;;;9.83;7.87;;;4.90;99.90;;;;;;5026295;28;20194;-89
2022/11/15 07:09:46;;;;;;;9.43;6.90;;;4.90;99.90;;;;;;5035824;28;20231;-89
2022/11/15 07:12:30;;;;;;;9.13;6.90;;;4.90;99.90;;;;;;5031893;28;20259;-88
2022/11/15 07:15:16;;;;;;;9.80;7.37;;;4.90;99.90;;;;;;5020807;28;20739;-88
2022/11/15 07:18:01;;;;;;;10.47;7.90;;;5.00;99.90;;;;;;5030411;28;20207;-88
2022/11/15 07:20:46;;;;;;;8.77;6.97;;;5.00;99.90;;;;;;5032047;28;20220;-88
2022/11/15 07:23:31;;;;;;;10.40;7.97;;;5.00;99.90;;;;;;5031637;28;20613;-88
2022/11/15 07:26:15;;;;;;;10.93;8.50;;;5.00;99.90;;;;;;5032138;28;20251;-88
2022/11/15 07:29:00;;;;;;;10.80;8.43;;;5.10;99.90;;;;;;5031785;28;20175;-88
2022/11/15 07:31:44;;;;;;;11.67;8.27;;;5.10;99.90;;;;;;5031865;28;20222;-88
2022/11/15 07:34:29;;;;;;;12.67;8.67;;;5.10;99.90;;;;;;5031546;28;20230;-88
2022/11/15 07:37:13;;;;;;;11.07;8.57;;;5.10;99.90;;;;;;5045524;28;20241;-88
2022/11/15 07:39:58;;;;;;;13.20;8.33;;;5.20;99.90;;;;;;5031775;28;20202;-88
2022/11/15 07:42:55;;;;;;;10.73;8.07;;;5.30;99.90;;;;;;5045786;28;20204;-88
2022/11/15 07:45:45;;;;;;;10.60;7.97;;;5.30;99.90;;;;;;5045796;28;20223;-88
2022/11/15 07:48:30;;;;;;;9.73;7.13;;;5.30;99.90;;;;;;5049541;28;20175;-88
2022/11/15 07:51:17;;;;;;;9.53;7.53;;;5.40;99.90;;;;;;5049772;28;20184;-89
2022/11/15 07:54:02;;;;;;;11.83;8.87;;;5.40;99.90;;;;;;5035553;28;20206;-88
2022/11/15 07:56:46;;;;;;;17.23;12.17;;;5.50;99.90;;;;;;5035139;28;20584;-89
2022/11/15 07:59:31;;;;;;;14.83;9.53;;;5.50;99.90;;;;;;5034536;28;20211;-89
2022/11/15 08:02:17;;;;;;;13.33;8.43;;;5.50;99.90;;;;;;5030431;28;20210;-88
2022/11/15 08:05:01;;;;;;;11.50;7.93;;;5.50;99.90;;;;;;5027316;28;20316;-88
2022/11/15 08:07:46;;;;;;;14.30;7.67;;;5.50;99.90;;;;;;5025925;28;20310;-88
2022/11/15 08:10:32;;;;;;;12.00;8.17;;;5.50;99.90;;;;;;5020897;28;20181;-88
2022/11/15 08:13:17;;;;;;;12.43;8.73;;;5.60;99.90;;;;;;5024969;28;20188;-88
2022/11/15 08:16:05;;;;;;;11.93;8.97;;;5.60;99.90;;;;;;5027685;28;20280;-88
2022/11/15 08:18:49;;;;;;;12.60;8.60;;;5.70;99.90;;;;;;5014877;28;20204;-88
2022/11/15 08:21:35;;;;;;;12.53;8.87;;;5.80;99.90;;;;;;5029122;28;20182;-88
2022/11/15 08:24:20;;;;;;;10.87;8.73;;;5.80;99.90;;;;;;5015548;28;20229;-88
2022/11/15 08:27:14;;;;;;;10.33;7.87;;;5.90;99.90;;;;;;5022273;28;20176;-88
2022/11/15 08:29:59;;;;;;;12.37;8.90;;;6.00;99.90;;;;;;5037988;28;20296;-88
2022/11/15 08:32:43;;;;;;;10.07;8.00;;;6.10;99.90;;;;;;5046376;28;20187;-88
2022/11/15 08:35:28;;;;;;;11.50;8.00;;;6.20;99.90;;;;;;5041752;28;20222;-87
2022/11/15 08:38:12;;;;;;;9.60;7.30;;;6.30;99.90;;;;;;5047978;28;20228;-87
2022/11/15 08:41:04;;;;;;;9.77;7.07;;;6.30;99.90;;;;;;5048955;28;20269;-87
2022/11/15 08:43:48;;;;;;;10.47;7.77;;;6.40;99.90;;;;;;5048605;28;20221;-87
2022/11/15 08:46:33;;;;;;;23.83;19.90;;;6.50;99.90;;;;;;5049279;28;20211;-87
2022/11/15 08:49:18;;;;;;;14.17;10.93;;;6.60;99.90;;;;;;5072572;28;20262;-87
2022/11/15 08:52:03;;;;;;;11.47;9.20;;;6.60;99.90;;;;;;5050870;28;20174;-87
2022/11/15 08:54:47;;;;;;;13.20;9.93;;;6.70;99.90;;;;;;5048445;28;20212;-87
2022/11/15 08:57:32;;;;;;;12.90;9.73;;;6.80;99.90;;;;;;5047694;28;20168;-87
2022/11/15 09:00:17;;;;;;;10.07;7.93;;;6.90;99.90;;;;;;5048415;28;20213;-87
2022/11/15 09:03:05;;;;;;;8.70;7.00;;;7.00;99.90;;;;;;5047790;28;20197;-87
2022/11/15 09:05:57;;;;;;;8.47;6.87;;;7.10;99.90;;;;;;5033294;28;20221;-87
2022/11/15 09:08:42;;;;;;;10.10;6.80;;;7.20;99.90;;;;;;5014229;28;20250;-87
2022/11/15 09:11:26;;;;;;;8.33;6.70;;;7.30;99.90;;;;;;5014181;28;20181;-87
2022/11/15 09:14:12;;;;;;;9.37;6.97;;;7.30;99.90;;;;;;5014245;28;20257;-87
2022/11/15 09:16:57;;;;;;;8.50;6.73;;;7.30;99.90;;;;;;5027956;28;20274;-87
2022/11/15 09:19:41;;;;;;;7.73;6.80;;;7.30;99.90;;;;;;5014233;28;20252;-87
2022/11/15 09:22:26;;;;;;;10.83;7.73;;;7.40;99.90;;;;;;5014101;28;20201;-87
2022/11/15 09:25:10;;;;;;;9.10;8.00;;;7.40;99.90;;;;;;5013672;28;20310;-87
2022/11/15 09:27:56;;;;;;;10.77;8.13;;;7.50;99.90;;;;;;5014068;28;20217;-87
2022/11/15 09:30:44;;;;;;;11.27;8.50;;;7.50;99.90;;;;;;5013863;28;20640;-87
2022/11/15 09:33:29;;;;;;;10.60;8.47;;;7.60;99.90;;;;;;5013775;28;20174;-87
2022/11/15 09:36:13;;;;;;;10.13;7.97;;;7.60;99.90;;;;;;5013997;28;20225;-87
2022/11/15 09:38:58;;;;;;;10.00;8.50;;;7.70;99.90;;;;;;5027600;28;20270;-87
2022/11/15 09:41:58;;;;;;;11.87;8.73;;;7.80;99.90;;;;;;5027799;28;20249;-87
2022/11/15 09:44:52;;;;;;;10.50;8.50;;;7.90;99.90;;;;;;5027757;28;20303;-87
2022/11/15 09:47:58;;;;;;;11.47;8.20;;;8.00;99.90;;;;;;5014350;28;20182;-87
2022/11/15 09:50:46;;;;;;;11.23;7.87;;;8.10;99.90;;;;;;5026909;28;20187;-87
2022/11/15 09:53:25;;;;;;;10.70;8.20;;;8.20;99.90;;;;;;5013176;28;20190;-87
2022/11/15 09:56:13;;;;;;;9.30;7.73;;;8.30;99.90;;;;;;5013175;28;20207;-87
2022/11/15 09:59:05;;;;;;;8.83;7.93;;;8.40;99.90;;;;;;5012975;28;20247;-87
2022/11/15 10:02:09;;;;;;;12.27;8.87;;;8.50;99.90;;;;;;5009229;28;20261;-87
2022/11/15 10:04:37;;;;;;;9.60;8.27;;;8.60;99.90;;;;;;5017688;28;20210;-87
2022/11/15 10:07:20;;;;;;;9.13;7.23;;;8.70;99.90;;;;;;5032415;28;20175;-87
2022/11/15 10:10:09;;;;;;;11.13;8.37;;;8.80;99.90;;;;;;5032775;28;20608;-88
2022/11/15 10:12:35;;;;;;;9.87;7.63;;;8.80;99.90;;;;;;5045363;28;20187;-87
2022/11/15 10:15:05;;;;;;;8.60;7.30;;;8.90;99.90;;;;;;5032401;28;20202;-87
2022/11/15 10:18:02;;;;;;;10.23;8.63;;;9.00;99.90;;;;;;5032185;28;20206;-87
2022/11/15 10:20:30;;;;;;;8.43;7.33;;;9.10;99.90;;;;;;5049086;28;20178;-87
2022/11/15 10:23:00;;;;;;;8.70;7.33;;;9.10;99.90;;;;;;5032490;28;20265;-87
2022/11/15 10:25:31;;;;;;;12.70;7.37;;;9.20;99.90;;;;;;5032349;28;20199;-87
2022/11/15 10:28:01;;;;;;;9.33;7.20;;;9.20;99.90;;;;;;5032007;28;20179;-87
2022/11/15 10:30:38;;;;;;;9.63;7.70;;;9.30;99.90;;;;;;5032189;28;20265;-87
2022/11/15 10:33:38;;;;;;;9.10;7.70;;;9.30;99.90;;;;;;5032355;28;20177;-87
2022/11/15 10:36:09;;;;;;;10.43;8.50;;;9.40;99.90;;;;;;5015099;28;20241;-87
2022/11/15 10:38:50;;;;;;;10.23;8.23;;;9.40;99.90;;;;;;5012108;28;20184;-87
2022/11/15 10:41:19;;;;;;;10.97;7.87;;;9.40;99.90;;;;;;5012304;28;20193;-87
2022/11/15 10:44:01;;;;;;;9.63;8.60;;;9.40;99.90;;;;;;5011631;28;20217;-87
2022/11/15 10:46:27;;;;;;;13.73;9.60;;;9.50;99.90;;;;;;5012198;28;20167;-87
2022/11/15 10:48:53;;;;;;;13.53;9.70;;;9.50;99.90;;;;;;5028465;28;20179;-87
2022/11/15 10:51:29;;;;;;;17.70;12.13;;;9.50;99.90;;;;;;5012427;28;20186;-87
2022/11/15 10:53:58;;;;;;;15.40;10.47;;;9.50;99.90;;;;;;5028544;28;20171;-87
2022/11/15 10:56:26;;;;;;;14.67;10.37;;;9.50;99.90;;;;;;5012460;28;20187;-87
2022/11/15 10:58:57;;;;;;;13.97;11.80;;;9.60;99.90;;;;;;5028571;28;20187;-87
2022/11/15 11:01:24;;;;;;;16.47;11.07;;;9.60;99.90;;;;;;5012009;28;20186;-87
2022/11/15 11:04:05;;;;;;;12.57;10.60;;;9.60;99.90;;;;;;5011915;28;20285;-87
2022/11/15 11:06:53;;;;;;;12.57;8.87;;;9.70;99.90;;;;;;4995887;28;20172;-87
2022/11/15 11:09:32;;;;;;;10.57;7.93;;;9.70;99.90;;;;;;4995343;28;20330;-87
2022/11/15 11:12:00;;;;;;;12.20;8.90;;;9.80;99.90;;;;;;5011877;28;20182;-87
2022/11/15 11:14:36;;;;;;;9.37;8.00;;;9.80;99.90;;;;;;5011754;28;20206;-87
2022/11/15 11:17:11;;;;;;;13.50;8.13;;;9.90;99.90;;;;;;5011578;28;20175;-87
2022/11/15 11:19:43;;;;;;;11.73;8.07;;;9.90;99.90;;;;;;5012077;28;20182;-87
2022/11/15 11:22:12;;;;;;;12.50;9.37;;;9.90;99.90;;;;;;5011149;28;20211;-87
2022/11/15 11:24:56;;;;;;;11.80;8.60;;;10.00;99.90;;;;;;5011533;28;20214;-87
2022/11/15 11:27:36;;;;;;;11.83;8.87;;;10.00;99.90;;;;;;5011244;28;20233;-87
2022/11/15 11:30:20;;;;;;;13.87;8.20;;;10.10;99.90;;;;;;5011992;28;20254;-88
2022/11/15 11:33:13;;;;;;;15.07;9.77;;;10.10;99.90;;;;;;5011628;28;20197;-87
2022/11/15 11:35:53;;;;;;;13.73;8.67;;;10.20;99.90;;;;;;5029940;28;20282;-69
2022/11/15 11:38:40;;;;;;;12.30;8.57;;;10.30;99.90;;;;;;5015817;28;20206;-79
2022/11/15 11:41:58;;;;;;;9.70;8.70;;;10.30;99.90;;;;;;5030092;28;20171;-86
2022/11/15 11:44:57;;;;;;;9.97;7.37;;;10.30;99.90;;;;;;5014574;28;20225;-86
2022/11/15 11:47:24;;;;;;;8.00;7.20;;;10.40;99.90;;;;;;5014911;28;20255;-82
2022/11/15 11:50:00;;;;;;;9.73;6.70;;;10.40;99.90;;;;;;4996159;28;20193;-87
2022/11/15 11:52:53;;;;;;;8.07;7.27;;;10.50;99.90;;;;;;5011809;28;20186;-86
2022/11/15 11:55:52;;;;;;;7.53;6.73;;;10.50;99.90;;;;;;5031359;28;20199;-87
2022/11/15 11:58:30;;;;;;;10.70;6.97;;;10.50;99.90;;;;;;5033833;28;20183;-87
2022/11/15 12:01:09;;;;;;;9.23;7.07;;;10.50;99.90;;;;;;5007952;28;20194;-86
2022/11/15 12:03:41;;;;;;;9.43;6.73;;;10.50;99.90;;;;;;5009827;28;20214;-86
2022/11/15 12:06:40;;;;;;;8.83;7.47;;;10.50;99.90;;;;;;5004543;28;20191;-86
2022/11/15 12:09:12;;;;;;;13.00;10.30;;;10.50;99.90;;;;;;5011709;28;20180;-86
2022/11/15 12:11:47;;;;;;;14.70;10.53;;;10.50;99.90;;;;;;5011698;28;20182;-86
2022/11/15 12:14:34;;;;;;;12.73;9.47;;;10.40;99.90;;;;;;5011454;28;20668;-86
2022/11/15 12:17:00;;;;;;;14.83;10.50;;;10.50;99.90;;;;;;5011420;28;20189;-84
2022/11/15 12:19:28;;;;;;;15.33;11.20;;;10.50;99.90;;;;;;5011521;28;20174;-70
2022/11/15 12:22:20;;;;;;;12.93;10.20;;;10.50;99.90;;;;;;5018854;28;20191;-71
2022/11/15 12:24:52;;;;;;;13.33;9.43;;;10.50;99.90;;;;;;5014111;28;20290;-87
2022/11/15 12:27:40;;;;;;;12.07;8.53;;;10.60;99.90;;;;;;5009523;28;20169;-84
2022/11/15 12:30:21;;;;;;;11.57;8.00;;;10.60;99.90;;;;;;4994618;28;20185;-87
2022/11/15 12:33:00;;;;;;;12.73;7.37;;;10.70;99.90;;;;;;4995844;28;20178;-87
2022/11/15 12:35:39;;;;;;;8.70;7.03;;;10.70;99.90;;;;;;5025327;28;20197;-87
2022/11/15 12:38:10;;;;;;;10.53;7.20;;;10.80;99.90;;;;;;5043092;28;20191;-87
2022/11/15 12:40:39;;;;;;;11.77;8.10;;;10.80;99.90;;;;;;5043335;28;20239;-86
2022/11/15 12:43:17;;;;;;;10.33;6.97;;;10.90;99.90;;;;;;5026360;28;20206;-87
2022/11/15 12:45:45;;;;;;;7.33;6.40;;;10.90;99.90;;;;;;5043055;28;20283;-87
2022/11/15 12:48:17;;;;;;;6.90;6.20;;;10.90;99.90;;;;;;5052038;28;20265;-87
2022/11/15 12:51:02;;;;;;;8.57;6.50;;;10.90;99.90;;;;;;5018773;28;20176;-87
2022/11/15 12:53:33;;;;;;;8.70;6.93;;;10.90;99.90;;;;;;5014813;28;20184;-86
2022/11/15 12:56:11;;;;;;;9.30;6.87;;;10.90;99.90;;;;;;5033113;28;20212;-86
2022/11/15 12:58:56;;;;;;;11.00;7.73;;;10.90;99.90;;;;;;5016965;28;20259;-86
2022/11/15 13:01:32;;;;;;;8.40;6.93;;;10.90;99.90;;;;;;5017422;28;20172;-86
2022/11/15 13:04:13;;;;;;;9.80;6.97;;;10.90;99.90;;;;;;5017134;28;20221;-87
2022/11/15 13:06:45;;;;;;;10.13;7.40;;;10.90;99.90;;;;;;5013913;28;20256;-86
2022/11/15 13:09:36;;;;;;;8.97;7.77;;;10.90;99.90;;;;;;5030378;28;20183;-86
2022/11/15 13:12:30;;;;;;;9.33;7.63;;;10.90;99.90;;;;;;5013908;28;20177;-86
2022/11/15 13:14:59;;;;;;;13.87;9.10;;;11.00;99.90;;;;;;4997226;28;20192;-87
2022/11/15 13:17:34;;;;;;;15.87;8.67;;;11.00;99.90;;;;;;4997381;28;20208;-87
2022/11/15 13:20:23;;;;;;;11.00;8.70;;;11.00;99.90;;;;;;5013790;28;20189;-87
2022/11/15 13:23:09;;;;;;;10.20;6.73;;;11.10;99.90;;;;;;5014072;28;20270;-87
2022/11/15 13:25:48;;;;;;;10.87;6.63;;;11.10;99.90;;;;;;4997742;28;20572;-87
2022/11/15 13:28:14;;;;;;;10.37;7.00;;;11.10;99.90;;;;;;5013393;28;20182;-87
2022/11/15 13:30:47;;;;;;;9.97;7.37;;;11.10;99.90;;;;;;5013828;28;20235;-87
2022/11/15 13:33:17;;;;;;;13.17;8.10;;;11.10;99.90;;;;;;5013645;28;20170;-87
2022/11/15 13:35:47;;;;;;;12.63;8.67;;;11.10;99.90;;;;;;5027810;28;20208;-87
2022/11/15 13:38:30;;;;;;;13.30;9.03;;;11.10;99.90;;;;;;5049496;28;20236;-87
2022/11/15 13:40:57;;;;;;;13.53;8.33;;;11.10;99.90;;;;;;5016918;28;20223;-87
2022/11/15 13:43:28;;;;;;;11.03;8.20;;;11.10;99.90;;;;;;5006171;28;20265;-87
2022/11/15 13:46:12;;;;;;;9.23;7.27;;;11.10;99.90;;;;;;5016193;28;20203;-87
2022/11/15 13:48:40;;;;;;;8.83;6.93;;;11.10;99.90;;;;;;5011868;28;20177;-87
2022/11/15 13:51:24;;;;;;;6.93;5.80;;;11.10;99.90;;;;;;5004732;28;20188;-87
2022/11/15 13:54:14;;;;;;;6.70;5.03;;;11.10;99.90;;;;;;5016330;28;20191;-87
2022/11/15 13:56:48;;;;;;;6.97;4.87;;;11.10;99.90;;;;;;5016152;28;20185;-88
2022/11/15 13:59:34;;;;;;;6.20;4.77;;;11.10;99.90;;;;;;5015139;28;20172;-87
2022/11/15 14:02:12;;;;;;;8.30;4.93;;;11.10;99.90;;;;;;4996626;28;20202;-87
2022/11/15 14:04:46;;;;;;;10.80;7.63;;;11.10;99.90;;;;;;5001760;28;20218;-87
2022/11/15 14:07:21;;;;;;;10.80;8.53;;;11.20;99.90;;;;;;5032586;28;20180;-87
2022/11/15 14:09:47;;;;;;;12.10;8.63;;;11.10;99.90;;;;;;5033234;28;20176;-87
2022/11/15 14:12:34;;;;;;;9.33;7.60;;;11.10;99.90;;;;;;5032496;28;20234;-87
2022/11/15 14:15:18;;;;;;;12.70;8.53;;;11.10;99.90;;;;;;5032368;28;20346;-87
2022/11/15 14:17:45;;;;;;;9.23;7.63;;;11.10;99.90;;;;;;5032432;28;20191;-87
2022/11/15 14:20:23;;;;;;;10.03;7.33;;;11.10;99.90;;;;;;5069544;28;20184;-87
2022/11/15 14:22:57;;;;;;;9.80;7.87;;;11.10;99.90;;;;;;5035892;28;20221;-87
2022/11/15 14:25:25;;;;;;;10.03;7.10;;;11.10;99.90;;;;;;5032626;28;20205;-87
2022/11/15 14:28:27;;;;;;;9.53;7.03;;;11.10;99.90;;;;;;5032429;28;20656;-87